Time;durP1;ratioP1;P1;durP2;ratioP2;P2;SDS_P1;SDS_P2;PMS_P1;PMS_P2;Temp;Humidity;BMP_temperature;BMP_pressure;BME280_temperature;BME280_humidity;BME280_pressure;Samples;Min_cycle;Max_cycle;Signal;HPM_P1;HPM_P2
2021/09/22 00:01:04;;;;;;;;;;;24.10;57.60;;;;;;5076431;28;19924;-60
2021/09/22 00:03:31;;;;;;;;;;;24.10;57.60;;;;;;5074592;28;19924;-61
2021/09/22 00:05:59;;;;;;;;;;;24.10;57.60;;;;;;5075883;28;19924;-60
2021/09/22 00:08:25;;;;;;;;;;;24.10;57.60;;;;;;5075830;28;19928;-61
2021/09/22 00:10:52;;;;;;;;;;;24.10;57.60;;;;;;5074194;28;19974;-60
2021/09/22 00:13:20;;;;;;;;;;;24.10;57.60;;;;;;5072467;28;19928;-61
2021/09/22 00:15:46;;;;;;;;;;;24.10;57.60;;;;;;5062154;28;19924;-61
2021/09/22 00:18:13;;;;;;;;;;;24.10;57.60;;;;;;5064986;28;20257;-61
2021/09/22 00:20:40;;;;;;;;;;;24.10;57.60;;;;;;5059675;28;19928;-60
2021/09/22 00:23:07;;;;;;;;;;;24.00;57.60;;;;;;5076090;28;20326;-61
2021/09/22 00:25:35;;;;;;;;;;;24.00;57.60;;;;;;5075450;28;20388;-61
2021/09/22 00:28:03;;;;;;;;;;;24.00;57.60;;;;;;5075716;28;20337;-61
2021/09/22 00:30:31;;;;;;;;;;;24.10;57.60;;;;;;5073937;28;19924;-61
2021/09/22 00:33:00;;;;;;;;;;;24.10;57.60;;;;;;5074800;28;19924;-60
2021/09/22 00:35:27;;;;;;;;;;;24.10;57.60;;;;;;5058099;28;20288;-60
2021/09/22 00:37:54;;;;;;;;;;;24.00;57.60;;;;;;5074402;28;19946;-61
2021/09/22 00:40:21;;;;;;;;;;;24.00;57.60;;;;;;5075168;28;19924;-60
2021/09/22 00:42:48;;;;;;;;;;;24.00;57.60;;;;;;5061479;28;19967;-61
2021/09/22 00:45:17;;;;;;;;;;;24.00;57.60;;;;;;5071606;28;19970;-61
2021/09/22 00:47:44;;;;;;;;;;;24.00;57.60;;;;;;5074968;28;20042;-60
2021/09/22 00:50:11;;;;;;;;;;;24.00;57.60;;;;;;5073885;28;19968;-60
2021/09/22 00:52:40;;;;;;;;;;;24.10;57.70;;;;;;5075008;28;20315;-61
2021/09/22 00:55:09;;;;;;;;;;;24.00;57.60;;;;;;5073150;28;20006;-60
2021/09/22 00:57:56;;;;;;;;;;;24.00;57.60;;;;;;5075123;28;20327;-61
2021/09/22 01:00:24;;;;;;;;;;;24.00;57.60;;;;;;5075261;28;19993;-60
2021/09/22 01:02:51;;;;;;;;;;;24.00;57.60;;;;;;5074795;28;19999;-61
2021/09/22 01:05:20;;;;;;;;;;;24.00;57.60;;;;;;5074594;28;19925;-61
2021/09/22 01:07:47;;;;;;;;;;;24.00;57.60;;;;;;5066574;28;19978;-61
2021/09/22 01:10:14;;;;;;;;;;;24.00;57.60;;;;;;5065878;28;20320;-60
2021/09/22 01:12:42;;;;;;;;;;;24.00;57.60;;;;;;5073283;28;20372;-60
2021/09/22 01:15:09;;;;;;;;;;;24.00;57.60;;;;;;5079812;28;19928;-60
2021/09/22 01:17:37;;;;;;;;;;;24.00;57.60;;;;;;5085560;28;19989;-60
2021/09/22 01:20:05;;;;;;;;;;;24.00;57.60;;;;;;5074150;28;20380;-60
2021/09/22 01:22:32;;;;;;;;;;;24.00;57.60;;;;;;5073034;28;19924;-61
2021/09/22 01:24:59;;;;;;;;;;;24.00;57.60;;;;;;5072887;28;19932;-60
2021/09/22 01:27:26;;;;;;;;;;;24.10;57.70;;;;;;5059009;28;19925;-60
2021/09/22 01:29:53;;;;;;;;;;;24.00;57.60;;;;;;5091122;28;20300;-61
2021/09/22 01:32:22;;;;;;;;;;;24.00;57.60;;;;;;5057117;28;20333;-61
2021/09/22 01:34:49;;;;;;;;;;;24.00;57.60;;;;;;5056534;28;19925;-60
2021/09/22 01:37:16;;;;;;;;;;;24.00;57.60;;;;;;5056041;28;19979;-60
2021/09/22 01:39:44;;;;;;;;;;;24.00;57.70;;;;;;5072938;28;20380;-61
2021/09/22 01:42:11;;;;;;;;;;;24.00;57.60;;;;;;5072875;28;19961;-61
2021/09/22 01:44:38;;;;;;;;;;;24.10;57.60;;;;;;5073979;28;19924;-60
2021/09/22 01:47:05;;;;;;;;;;;24.10;57.60;;;;;;5072736;28;20330;-61
2021/09/22 01:49:32;;;;;;;;;;;24.00;57.60;;;;;;5072452;28;19925;-60
2021/09/22 01:52:01;;;;;;;;;;;24.00;57.60;;;;;;5074955;28;19970;-61
2021/09/22 01:54:28;;;;;;;;;;;24.00;57.60;;;;;;5072720;28;19928;-60
2021/09/22 01:56:55;;;;;;;;;;;24.00;57.60;;;;;;5062768;28;20292;-61
2021/09/22 01:59:22;;;;;;;;;;;24.00;57.70;;;;;;5066369;28;19925;-60
2021/09/22 02:01:49;;;;;;;;;;;24.00;58.20;;;;;;5072772;28;19958;-61
2021/09/22 02:04:16;;;;;;;;;;;24.00;57.70;;;;;;5064285;28;19925;-61
2021/09/22 02:06:43;;;;;;;;;;;24.00;57.70;;;;;;5065737;28;19939;-61
2021/09/22 02:09:10;;;;;;;;;;;24.00;57.70;;;;;;5063699;28;19948;-60
2021/09/22 02:11:37;;;;;;;;;;;24.00;57.70;;;;;;5073877;28;20296;-60
2021/09/22 02:14:04;;;;;;;;;;;24.00;57.60;;;;;;5069346;28;19925;-60
2021/09/22 02:16:31;;;;;;;;;;;24.00;57.60;;;;;;5060506;28;20364;-61
2021/09/22 02:18:58;;;;;;;;;;;24.00;57.70;;;;;;5060415;28;19924;-61
2021/09/22 02:21:25;;;;;;;;;;;24.00;57.70;;;;;;5073902;28;20290;-61
2021/09/22 02:23:52;;;;;;;;;;;24.00;57.70;;;;;;5073199;28;19931;-61
2021/09/22 02:26:19;;;;;;;;;;;24.00;57.70;;;;;;5056898;28;20003;-60
2021/09/22 02:28:46;;;;;;;;;;;24.00;57.70;;;;;;5055725;28;20407;-61
2021/09/22 02:31:13;;;;;;;;;;;24.00;57.70;;;;;;5073276;28;19929;-61
2021/09/22 02:33:40;;;;;;;;;;;24.00;57.70;;;;;;5054324;28;20002;-61
2021/09/22 02:36:07;;;;;;;;;;;24.00;57.70;;;;;;5071569;28;19924;-61
2021/09/22 02:38:33;;;;;;;;;;;24.00;57.70;;;;;;5072297;28;19990;-61
2021/09/22 02:41:00;;;;;;;;;;;24.00;57.70;;;;;;5070874;28;19931;-61
2021/09/22 02:43:27;;;;;;;;;;;24.00;57.80;;;;;;5072108;28;19924;-61
2021/09/22 02:45:54;;;;;;;;;;;24.00;57.70;;;;;;5070819;28;19996;-60
2021/09/22 02:48:22;;;;;;;;;;;24.00;57.70;;;;;;5072056;28;19924;-61
2021/09/22 02:50:51;;;;;;;;;;;24.00;57.80;;;;;;5072224;28;20343;-61
2021/09/22 02:53:18;;;;;;;;;;;24.00;57.70;;;;;;5073351;28;19994;-61
2021/09/22 02:55:45;;;;;;;;;;;24.00;57.70;;;;;;5073104;28;19966;-60
2021/09/22 02:58:13;;;;;;;;;;;24.00;57.70;;;;;;5071975;28;19928;-61
2021/09/22 03:00:40;;;;;;;;;;;24.00;57.70;;;;;;5073413;28;19934;-61
2021/09/22 03:03:07;;;;;;;;;;;24.00;57.70;;;;;;5066666;28;19932;-61
2021/09/22 03:05:35;;;;;;;;;;;24.00;57.70;;;;;;5062449;28;20416;-61
2021/09/22 03:08:02;;;;;;;;;;;24.00;57.70;;;;;;5073371;28;20292;-60
2021/09/22 03:10:29;;;;;;;;;;;24.00;57.70;;;;;;5069564;28;19971;-60
2021/09/22 03:12:56;;;;;;;;;;;24.00;57.70;;;;;;5062636;28;20055;-61
2021/09/22 03:15:23;;;;;;;;;;;24.00;57.70;;;;;;5086570;28;19931;-61
2021/09/22 03:17:50;;;;;;;;;;;24.00;57.80;;;;;;5067733;28;20400;-60
2021/09/22 03:20:17;;;;;;;;;;;24.00;57.80;;;;;;5075757;28;19924;-61
2021/09/22 03:22:44;;;;;;;;;;;24.00;57.80;;;;;;5057986;28;19925;-61
2021/09/22 03:25:11;;;;;;;;;;;24.00;57.80;;;;;;5076613;28;19928;-61
2021/09/22 03:27:38;;;;;;;;;;;23.90;57.80;;;;;;5076093;28;19985;-61
2021/09/22 03:30:06;;;;;;;;;;;24.00;57.90;;;;;;5075752;28;19976;-61
2021/09/22 03:32:33;;;;;;;;;;;23.90;57.70;;;;;;5057872;28;19965;-61
2021/09/22 03:35:00;;;;;;;;;;;24.00;57.90;;;;;;5075560;28;19928;-61
2021/09/22 03:37:27;;;;;;;;;;;23.90;57.70;;;;;;5076441;28;20330;-60
2021/09/22 03:39:54;;;;;;;;;;;23.90;57.80;;;;;;5076141;28;20266;-61
2021/09/22 03:42:21;;;;;;;;;;;23.90;57.80;;;;;;5075050;28;19928;-60
2021/09/22 03:44:48;;;;;;;;;;;23.90;57.80;;;;;;5074978;28;19924;-61
2021/09/22 03:47:15;;;;;;;;;;;23.90;57.80;;;;;;5074808;28;19928;-61
2021/09/22 03:49:43;;;;;;;;;;;23.90;57.80;;;;;;5085912;28;19975;-61
2021/09/22 03:52:10;;;;;;;;;;;23.90;57.80;;;;;;5084099;28;19989;-61
2021/09/22 03:54:37;;;;;;;;;;;23.90;57.80;;;;;;5075984;28;20299;-60
2021/09/22 03:57:03;;;;;;;;;;;23.90;57.80;;;;;;5075963;28;19971;-61
2021/09/22 03:59:30;;;;;;;;;;;23.90;57.80;;;;;;5074645;28;19951;-61
2021/09/22 04:01:57;;;;;;;;;;;23.90;57.70;;;;;;5069793;28;19968;-61
2021/09/22 04:04:25;;;;;;;;;;;23.90;57.80;;;;;;5059936;28;19931;-61
2021/09/22 04:06:54;;;;;;;;;;;23.90;57.80;;;;;;5063380;28;19925;-61
2021/09/22 04:09:21;;;;;;;;;;;23.90;57.90;;;;;;5075684;28;19924;-61
2021/09/22 04:11:48;;;;;;;;;;;23.90;57.90;;;;;;5075806;28;19925;-61
2021/09/22 04:14:15;;;;;;;;;;;23.90;57.90;;;;;;5075843;28;20400;-61
2021/09/22 04:16:42;;;;;;;;;;;23.90;57.80;;;;;;5075827;28;20003;-61
2021/09/22 04:19:09;;;;;;;;;;;23.90;57.90;;;;;;5058264;28;20007;-61
2021/09/22 04:21:36;;;;;;;;;;;23.90;57.90;;;;;;5073647;28;19929;-61
2021/09/22 04:24:04;;;;;;;;;;;23.90;57.90;;;;;;5072447;28;19924;-61
2021/09/22 04:26:31;;;;;;;;;;;23.90;57.90;;;;;;5074228;28;20041;-61
2021/09/22 04:28:58;;;;;;;;;;;23.90;57.90;;;;;;5073407;28;19932;-61
2021/09/22 04:31:25;;;;;;;;;;;23.90;57.90;;;;;;5106324;28;19924;-61
2021/09/22 04:33:52;;;;;;;;;;;23.90;57.80;;;;;;5073966;28;19934;-60
2021/09/22 04:36:19;;;;;;;;;;;23.90;57.80;;;;;;5074310;28;19924;-61
2021/09/22 04:38:46;;;;;;;;;;;23.90;57.80;;;;;;5074019;28;19925;-61
2021/09/22 04:41:13;;;;;;;;;;;23.90;57.80;;;;;;5075224;28;19947;-61
2021/09/22 04:43:40;;;;;;;;;;;23.90;57.80;;;;;;5075342;28;20342;-61
2021/09/22 04:46:08;;;;;;;;;;;23.90;57.80;;;;;;5065758;28;20372;-61
2021/09/22 04:48:38;;;;;;;;;;;23.90;57.80;;;;;;5067067;28;19928;-61
2021/09/22 04:51:05;;;;;;;;;;;23.90;57.80;;;;;;5074787;28;19974;-61
2021/09/22 04:53:32;;;;;;;;;;;23.90;57.80;;;;;;5067940;28;19925;-61
2021/09/22 04:55:59;;;;;;;;;;;23.90;57.80;;;;;;5076400;28;19924;-61
2021/09/22 04:58:26;;;;;;;;;;;23.90;57.80;;;;;;5063422;28;19925;-61
2021/09/22 05:00:53;;;;;;;;;;;23.90;57.80;;;;;;5074992;28;19997;-60
2021/09/22 05:03:20;;;;;;;;;;;23.90;57.90;;;;;;5071640;28;19928;-61
2021/09/22 05:05:48;;;;;;;;;;;23.90;57.80;;;;;;5060604;28;19968;-61
2021/09/22 05:08:15;;;;;;;;;;;23.90;57.80;;;;;;5074687;28;19924;-60
2021/09/22 05:10:42;;;;;;;;;;;23.90;57.80;;;;;;5074653;28;19925;-61
2021/09/22 05:13:09;;;;;;;;;;;23.90;57.80;;;;;;5073362;28;19924;-60
2021/09/22 05:15:36;;;;;;;;;;;23.90;57.80;;;;;;5073109;28;19925;-61
2021/09/22 05:18:03;;;;;;;;;;;23.90;57.80;;;;;;5072011;28;20372;-60
2021/09/22 05:20:30;;;;;;;;;;;23.90;57.80;;;;;;5072936;28;19924;-61
2021/09/22 05:22:57;;;;;;;;;;;23.90;57.80;;;;;;5073037;28;19930;-61
2021/09/22 05:25:27;;;;;;;;;;;23.90;57.80;;;;;;5056816;28;20377;-61
2021/09/22 05:27:54;;;;;;;;;;;23.90;57.80;;;;;;5072776;28;20384;-60
2021/09/22 05:30:21;;;;;;;;;;;23.90;57.80;;;;;;5059912;28;20327;-60
2021/09/22 05:32:48;;;;;;;;;;;23.90;57.80;;;;;;5071146;28;20058;-60
2021/09/22 05:35:15;;;;;;;;;;;23.90;57.70;;;;;;5073355;28;20391;-60
2021/09/22 05:37:42;;;;;;;;;;;23.90;57.70;;;;;;5073991;28;20384;-61
2021/09/22 05:40:09;;;;;;;;;;;23.90;57.70;;;;;;5073131;28;19924;-60
2021/09/22 05:42:36;;;;;;;;;;;23.90;57.80;;;;;;5072961;28;19970;-61
2021/09/22 05:45:03;;;;;;;;;;;23.90;57.70;;;;;;5065363;28;19924;-60
2021/09/22 05:47:31;;;;;;;;;;;24.00;57.80;;;;;;5065464;28;20038;-61
2021/09/22 05:49:58;;;;;;;;;;;24.00;57.80;;;;;;5072344;28;19924;-61
2021/09/22 05:52:25;;;;;;;;;;;24.00;57.70;;;;;;5073933;28;19924;-61
2021/09/22 05:54:52;;;;;;;;;;;24.00;57.80;;;;;;5072448;28;19924;-60
2021/09/22 05:57:19;;;;;;;;;;;24.00;57.70;;;;;;5070016;28;20309;-61
2021/09/22 05:59:46;;;;;;;;;;;24.00;57.70;;;;;;5089419;27;20399;-61
2021/09/22 06:02:13;;;;;;;;;;;24.00;57.70;;;;;;5058351;28;19971;-61
2021/09/22 06:04:41;;;;;;;;;;;24.00;57.70;;;;;;5072571;28;19924;-60
2021/09/22 06:07:08;;;;;;;;;;;24.00;57.70;;;;;;5073791;28;19924;-61
2021/09/22 06:09:35;;;;;;;;;;;24.00;57.70;;;;;;5073790;28;19925;-61
2021/09/22 06:12:02;;;;;;;;;;;24.00;57.70;;;;;;5074048;28;19924;-60
2021/09/22 06:14:29;;;;;;;;;;;24.00;57.60;;;;;;5073502;28;20331;-61
2021/09/22 06:16:56;;;;;;;;;;;24.00;57.60;;;;;;5070358;28;20000;-61
2021/09/22 06:19:23;;;;;;;;;;;24.10;57.60;;;;;;5071066;28;20033;-61
2021/09/22 06:21:50;;;;;;;;;;;24.10;57.60;;;;;;5072707;28;19975;-61
2021/09/22 06:24:35;;;;;;;;;;;24.10;57.50;;;;;;5072421;28;19968;-61
2021/09/22 06:27:03;;;;;;;;;;;24.10;57.40;;;;;;5072601;28;19978;-61
2021/09/22 06:29:29;;;;;;;;;;;24.10;57.40;;;;;;5072865;28;19968;-61
2021/09/22 06:31:56;;;;;;;;;;;24.10;57.30;;;;;;5059382;28;19996;-61
2021/09/22 06:34:23;;;;;;;;;;;24.10;57.40;;;;;;5057051;28;19924;-61
2021/09/22 06:36:50;;;;;;;;;;;24.10;57.30;;;;;;5069265;28;20356;-61
2021/09/22 06:39:17;;;;;;;;;;;24.10;57.30;;;;;;5073290;28;19950;-61
2021/09/22 06:41:44;;;;;;;;;;;24.10;57.30;;;;;;5063298;28;20280;-61
2021/09/22 06:44:11;;;;;;;;;;;24.20;57.30;;;;;;5066304;28;20300;-61
2021/09/22 06:46:38;;;;;;;;;;;24.10;57.20;;;;;;5073666;28;19924;-61
2021/09/22 06:49:05;;;;;;;;;;;24.20;57.30;;;;;;5065996;28;19925;-61
2021/09/22 06:51:32;;;;;;;;;;;24.20;57.20;;;;;;5063277;28;19931;-60
2021/09/22 06:53:59;;;;;;;;;;;24.20;57.20;;;;;;5076880;28;20383;-61
2021/09/22 06:56:27;;;;;;;;;;;24.20;57.20;;;;;;5076906;28;19971;-60
2021/09/22 06:58:54;;;;;;;;;;;24.20;57.20;;;;;;5107933;28;19931;-61
2021/09/22 07:01:21;;;;;;;;;;;24.20;57.20;;;;;;5077004;28;19936;-61
2021/09/22 07:03:48;;;;;;;;;;;24.20;57.20;;;;;;5077207;28;19925;-60
2021/09/22 07:06:15;;;;;;;;;;;24.20;57.20;;;;;;5075652;28;19995;-60
2021/09/22 07:08:43;;;;;;;;;;;24.20;57.20;;;;;;5077314;28;19924;-61
2021/09/22 07:11:10;;;;;;;;;;;24.20;57.20;;;;;;5059349;28;19975;-60
2021/09/22 07:13:37;;;;;;;;;;;24.20;57.20;;;;;;5076082;28;19925;-60
2021/09/22 07:16:05;;;;;;;;;;;24.20;57.20;;;;;;5108583;28;19924;-61
2021/09/22 07:18:32;;;;;;;;;;;24.20;57.20;;;;;;5078100;28;19924;-61
2021/09/22 07:21:00;;;;;;;;;;;24.20;57.40;;;;;;5075431;28;19930;-60
2021/09/22 07:23:28;;;;;;;;;;;24.20;57.20;;;;;;5076647;28;19970;-61
2021/09/22 07:25:55;;;;;;;;;;;24.20;57.20;;;;;;5076737;28;19989;-60
2021/09/22 07:28:22;;;;;;;;;;;24.20;57.10;;;;;;5062414;28;20380;-61
2021/09/22 07:30:49;;;;;;;;;;;24.20;57.10;;;;;;5073256;28;19924;-61
2021/09/22 07:33:16;;;;;;;;;;;24.30;57.20;;;;;;5076760;28;19978;-61
2021/09/22 07:35:44;;;;;;;;;;;24.30;57.10;;;;;;5064091;28;19925;-61
2021/09/22 07:38:11;;;;;;;;;;;24.30;57.00;;;;;;5060290;28;19928;-61
2021/09/22 07:40:38;;;;;;;;;;;24.30;57.00;;;;;;5069317;28;19947;-61
2021/09/22 07:43:05;;;;;;;;;;;24.30;57.00;;;;;;5074967;28;19928;-61
2021/09/22 07:45:32;;;;;;;;;;;24.30;57.00;;;;;;5076101;28;19950;-61
2021/09/22 07:47:59;;;;;;;;;;;24.30;57.00;;;;;;5076370;28;20042;-60
2021/09/22 07:50:27;;;;;;;;;;;24.30;57.00;;;;;;5074541;28;19979;-61
2021/09/22 07:52:53;;;;;;;;;;;24.30;56.90;;;;;;5076311;28;19928;-61
2021/09/22 07:55:21;;;;;;;;;;;24.40;56.90;;;;;;5075758;28;19925;-61
2021/09/22 07:57:52;;;;;;;;;;;24.40;56.90;;;;;;5074458;28;19924;-61
2021/09/22 08:00:19;;;;;;;;;;;24.40;56.90;;;;;;5074654;28;19950;-61
2021/09/22 08:02:46;;;;;;;;;;;24.30;56.90;;;;;;5076060;28;20004;-61
2021/09/22 08:05:14;;;;;;;;;;;24.30;56.90;;;;;;5074847;28;19930;-61
2021/09/22 08:07:43;;;;;;;;;;;24.30;57.00;;;;;;5075118;28;19969;-60
2021/09/22 08:10:10;;;;;;;;;;;24.30;57.00;;;;;;5076044;28;19924;-61
2021/09/22 08:12:37;;;;;;;;;;;24.30;57.00;;;;;;5056557;28;19978;-61
2021/09/22 08:15:04;;;;;;;;;;;24.30;57.00;;;;;;5056439;28;19925;-61
2021/09/22 08:17:31;;;;;;;;;;;24.30;56.90;;;;;;5057938;28;20016;-60
2021/09/22 08:19:59;;;;;;;;;;;24.30;56.90;;;;;;5073925;28;20376;-60
2021/09/22 08:22:26;;;;;;;;;;;24.30;56.90;;;;;;5060984;28;19925;-61
2021/09/22 08:24:53;;;;;;;;;;;24.30;56.90;;;;;;5073333;28;19928;-60
2021/09/22 08:27:20;;;;;;;;;;;24.30;56.90;;;;;;5075196;28;20384;-61
2021/09/22 08:29:48;;;;;;;;;;;24.30;56.80;;;;;;5075540;28;19928;-61
2021/09/22 08:32:15;;;;;;;;;;;24.30;56.90;;;;;;5064149;28;19928;-61
2021/09/22 08:34:42;;;;;;;;;;;24.30;56.90;;;;;;5069452;28;19928;-61
2021/09/22 08:37:09;;;;;;;;;;;24.30;56.90;;;;;;5073981;28;19970;-61
2021/09/22 08:39:36;;;;;;;;;;;24.30;57.00;;;;;;5075086;28;20368;-61
2021/09/22 08:42:04;;;;;;;;;;;24.30;57.00;;;;;;5073845;28;19974;-61
2021/09/22 08:44:31;;;;;;;;;;;24.30;57.00;;;;;;5075168;28;19970;-61
2021/09/22 08:46:59;;;;;;;;;;;24.30;57.10;;;;;;5075058;28;20440;-60
2021/09/22 08:49:25;;;;;;;;;;;24.30;57.10;;;;;;5074898;28;19974;-61
2021/09/22 08:51:53;;;;;;;;;;;24.20;57.10;;;;;;5073732;28;20375;-61
2021/09/22 08:54:20;;;;;;;;;;;24.20;57.00;;;;;;5074753;28;19928;-61
2021/09/22 08:56:47;;;;;;;;;;;24.20;57.00;;;;;;5073410;28;20392;-61
2021/09/22 08:59:15;;;;;;;;;;;24.20;57.00;;;;;;5073679;28;19974;-61
2021/09/22 09:02:02;;;;;;;;;;;24.20;57.00;;;;;;5074701;28;19955;-61
2021/09/22 09:04:30;;;;;;;;;;;24.20;57.00;;;;;;5073504;28;19924;-61
2021/09/22 09:06:57;;;;;;;;;;;24.20;57.10;;;;;;5073738;28;20284;-61
2021/09/22 09:09:31;;;;;;;;;;;24.20;57.10;;;;;;5073154;28;19978;-61
2021/09/22 09:11:58;;;;;;;;;;;24.20;57.10;;;;;;5072867;28;19978;-61
2021/09/22 09:14:25;;;;;;;;;;;24.20;57.10;;;;;;5088248;28;19928;-61
2021/09/22 09:16:53;;;;;;;;;;;24.20;57.10;;;;;;5073543;28;19935;-61
2021/09/22 09:19:22;;;;;;;;;;;24.20;57.20;;;;;;5074383;28;20493;-61
2021/09/22 09:21:52;;;;;;;;;;;24.20;57.10;;;;;;5055410;28;19928;-61
2021/09/22 09:24:32;;;;;;;;;;;24.20;57.10;;;;;;5055566;28;19924;-61
2021/09/22 09:26:59;;;;;;;;;;;24.20;57.10;;;;;;5073583;28;19980;-61
2021/09/22 09:29:27;;;;;;;;;;;24.20;57.00;;;;;;5073360;28;19925;-61
2021/09/22 09:32:13;;;;;;;;;;;24.30;57.00;;;;;;5055760;28;19924;-61
2021/09/22 09:35:00;;;;;;;;;;;24.30;56.90;;;;;;5055952;28;19924;-60
2021/09/22 09:37:29;;;;;;;;;;;24.30;56.80;;;;;;5052977;28;19925;-60
2021/09/22 09:39:57;;;;;;;;;;;24.40;56.90;;;;;;5074072;28;19924;-60
2021/09/22 09:42:28;;;;;;;;;;;24.40;56.60;;;;;;5055249;28;19932;-61
2021/09/22 09:44:57;;;;;;;;;;;24.50;56.60;;;;;;5073158;28;19980;-61
2021/09/22 09:47:24;;;;;;;;;;;24.50;56.50;;;;;;5073375;28;20276;-61
2021/09/22 09:49:51;;;;;;;;;;;24.60;56.30;;;;;;5072654;28;19978;-60
2021/09/22 09:52:20;;;;;;;;;;;24.60;56.30;;;;;;5072558;28;19925;-60
2021/09/22 09:54:48;;;;;;;;;;;24.60;56.10;;;;;;5072678;28;19925;-60
2021/09/22 09:57:16;;;;;;;;;;;24.70;56.10;;;;;;5072495;28;19964;-60
2021/09/22 09:59:48;;;;;;;;;;;24.70;56.00;;;;;;5073656;28;19932;-60
2021/09/22 10:02:25;;;;;;;;;;;24.70;55.90;;;;;;5060867;28;20686;-60
2021/09/22 10:04:53;;;;;;;;;;;24.80;55.90;;;;;;5069359;28;19981;-60
2021/09/22 10:07:20;;;;;;;;;;;24.80;55.80;;;;;;5073683;28;19929;-60
2021/09/22 10:09:49;;;;;;;;;;;24.90;55.80;;;;;;5072450;28;19964;-60
2021/09/22 10:12:17;;;;;;;;;;;24.80;55.70;;;;;;5073588;28;19972;-60
2021/09/22 10:14:46;;;;;;;;;;;24.90;55.80;;;;;;5064128;28;20012;-61
2021/09/22 10:17:15;;;;;;;;;;;24.80;55.70;;;;;;5057403;28;19925;-61
2021/09/22 10:19:43;;;;;;;;;;;24.80;55.80;;;;;;5065564;28;20377;-60
2021/09/22 10:22:10;;;;;;;;;;;24.80;55.70;;;;;;5073536;28;20000;-61
2021/09/22 10:24:37;;;;;;;;;;;24.80;55.70;;;;;;5073792;28;19970;-60
2021/09/22 10:27:05;;;;;;;;;;;24.80;55.70;;;;;;5065382;28;20438;-60
2021/09/22 10:29:37;;;;;;;;;;;24.90;55.70;;;;;;5064082;28;19924;-60
2021/09/22 10:32:05;;;;;;;;;;;24.90;55.70;;;;;;5072308;28;20368;-61
2021/09/22 10:34:34;;;;;;;;;;;24.90;55.50;;;;;;5070918;28;19990;-60
2021/09/22 10:37:02;;;;;;;;;;;24.90;55.50;;;;;;5072225;28;20003;-60
2021/09/22 10:39:35;;;;;;;;;;;25.00;55.50;;;;;;5073660;28;19952;-61
2021/09/22 10:42:21;;;;;;;;;;;25.00;55.40;;;;;;5074531;28;20018;-60
2021/09/22 10:44:49;;;;;;;;;;;25.00;55.30;;;;;;5073343;28;19925;-60
2021/09/22 10:47:24;;;;;;;;;;;25.00;55.30;;;;;;5073359;28;20406;-60
2021/09/22 10:49:51;;;;;;;;;;;25.00;55.30;;;;;;5069794;28;20456;-61
2021/09/22 10:52:30;;;;;;;;;;;25.00;55.30;;;;;;5057644;28;20300;-61
2021/09/22 10:55:15;;;;;;;;;;;25.00;55.30;;;;;;5073081;28;19925;-60
2021/09/22 10:57:44;;;;;;;;;;;25.10;55.30;;;;;;5072958;28;19979;-60
2021/09/22 11:00:13;;;;;;;;;;;25.10;55.20;;;;;;5073030;28;19928;-61
2021/09/22 11:02:42;;;;;;;;;;;25.10;55.20;;;;;;5073062;28;20385;-61
2021/09/22 11:05:12;;;;;;;;;;;25.10;55.20;;;;;;5107961;28;19932;-61
2021/09/22 11:07:59;;;;;;;;;;;25.10;55.20;;;;;;5087614;28;19967;-61
2021/09/22 11:10:31;;;;;;;;;;;25.10;55.20;;;;;;5073654;28;20384;-61
2021/09/22 11:13:17;;;;;;;;;;;25.10;55.10;;;;;;5073061;28;19978;-61
2021/09/22 11:15:44;;;;;;;;;;;25.10;55.10;;;;;;5066908;28;20335;-61
2021/09/22 11:18:12;;;;;;;;;;;25.10;55.00;;;;;;5060583;28;20372;-61
2021/09/22 11:20:39;;;;;;;;;;;25.20;55.00;;;;;;5069961;28;19990;-61
2021/09/22 11:23:10;;;;;;;;;;;25.10;55.00;;;;;;5058760;28;19960;-61
2021/09/22 11:25:37;;;;;;;;;;;25.10;55.00;;;;;;5071237;28;20003;-61
2021/09/22 11:28:05;;;;;;;;;;;25.10;55.00;;;;;;5056894;28;20334;-61
2021/09/22 11:30:32;;;;;;;;;;;25.10;54.90;;;;;;5089013;28;20392;-61
2021/09/22 11:33:00;;;;;;;;;;;25.20;54.90;;;;;;5069415;28;20384;-61
2021/09/22 11:35:30;;;;;;;;;;;25.20;54.90;;;;;;5071306;28;19924;-61
2021/09/22 11:37:58;;;;;;;;;;;25.20;54.90;;;;;;5070970;28;19924;-60
2021/09/22 11:40:34;;;;;;;;;;;25.20;54.90;;;;;;5073586;28;19928;-61
2021/09/22 11:43:11;;;;;;;;;;;25.20;54.80;;;;;;5074243;28;20027;-61
2021/09/22 11:45:38;;;;;;;;;;;25.20;55.00;;;;;;5075780;28;20320;-61
2021/09/22 11:48:06;;;;;;;;;;;25.20;55.00;;;;;;5074976;28;20408;-61
2021/09/22 11:50:37;;;;;;;;;;;25.10;55.60;;;;;;5075268;28;19973;-61
2021/09/22 11:53:08;;;;;;;;;;;25.20;55.50;;;;;;5074290;28;19976;-61
2021/09/22 11:55:36;;;;;;;;;;;25.20;54.90;;;;;;5075685;28;20399;-61
2021/09/22 11:58:03;;;;;;;;;;;25.20;54.90;;;;;;5075954;28;19928;-61
2021/09/22 12:00:30;;;;;;;;;;;25.20;54.90;;;;;;5075779;28;19960;-60
2021/09/22 12:02:57;;;;;;;;;;;25.20;54.90;;;;;;5062632;28;19939;-61
2021/09/22 12:05:26;;;;;;;;;;;25.20;54.90;;;;;;5072519;28;20288;-61
2021/09/22 12:07:54;;;;;;;;;;;25.20;54.90;;;;;;5120061;27;19932;-61
2021/09/22 12:10:22;;;;;;;;;;;25.20;54.90;;;;;;5070388;28;20061;-61
2021/09/22 12:12:49;;;;;;;;;;;25.20;55.00;;;;;;5059729;28;19924;-61
2021/09/22 12:15:17;;;;;;;;;;;25.20;54.90;;;;;;5067528;28;19971;-60
2021/09/22 12:17:44;;;;;;;;;;;25.10;55.00;;;;;;5067259;28;19975;-61
2021/09/22 12:20:15;;;;;;;;;;;25.10;55.00;;;;;;5058184;28;19929;-61
2021/09/22 12:22:43;;;;;;;;;;;25.10;55.10;;;;;;5072984;28;19924;-61
2021/09/22 12:25:13;;;;;;;;;;;25.20;55.00;;;;;;5069524;28;19932;-61
2021/09/22 12:27:50;;;;;;;;;;;25.10;55.00;;;;;;5058928;28;20499;-61
2021/09/22 12:30:17;;;;;;;;;;;25.10;55.00;;;;;;5057572;28;20419;-61
2021/09/22 12:32:51;;;;;;;;;;;25.20;54.90;;;;;;5064186;28;19963;-61
2021/09/22 12:35:19;;;;;;;;;;;25.20;54.90;;;;;;5073978;28;20015;-61
2021/09/22 12:37:53;;;;;;;;;;;25.20;55.00;;;;;;5075303;28;19925;-61
2021/09/22 12:40:40;;;;;;;;;;;25.10;54.90;;;;;;5074178;28;19929;-61
2021/09/22 12:43:19;;;;;;;;;;;25.20;54.90;;;;;;5075170;28;19966;-61
2021/09/22 12:45:46;;;;;;;;;;;25.20;54.90;;;;;;5068456;28;19964;-61
2021/09/22 12:48:21;;;;;;;;;;;25.20;54.80;;;;;;5064319;28;20071;-61
2021/09/22 12:50:48;;;;;;;;;;;25.20;54.90;;;;;;5073370;28;19924;-61
2021/09/22 12:53:16;;;;;;;;;;;25.20;54.90;;;;;;5073925;28;19983;-61
2021/09/22 12:55:44;;;;;;;;;;;25.20;54.90;;;;;;5074751;28;20026;-61
2021/09/22 12:58:13;;;;;;;;;;;25.10;55.00;;;;;;5075083;28;20296;-61
2021/09/22 13:00:51;;;;;;;;;;;25.20;55.00;;;;;;5074976;28;19989;-61
2021/09/22 13:03:23;;;;;;;;;;;25.10;55.00;;;;;;5074450;28;19932;-61
2021/09/22 13:05:55;;;;;;;;;;;25.10;55.10;;;;;;5075146;28;19924;-61
2021/09/22 13:08:25;;;;;;;;;;;25.10;55.00;;;;;;5074343;28;20214;-61
2021/09/22 13:10:55;;;;;;;;;;;25.10;55.00;;;;;;5074502;28;19928;-61
2021/09/22 13:13:22;;;;;;;;;;;25.20;55.00;;;;;;5074531;28;20348;-61
2021/09/22 13:15:54;;;;;;;;;;;25.20;55.00;;;;;;5074539;28;19937;-61
2021/09/22 13:18:22;;;;;;;;;;;25.20;54.90;;;;;;5074259;28;19931;-61
2021/09/22 13:20:49;;;;;;;;;;;25.20;54.80;;;;;;5074350;28;19924;-61
2021/09/22 13:23:20;;;;;;;;;;;25.20;54.80;;;;;;5055952;28;19978;-61
2021/09/22 13:25:47;;;;;;;;;;;25.30;54.90;;;;;;5056691;28;19932;-61
2021/09/22 13:28:14;;;;;;;;;;;25.30;54.70;;;;;;5072722;28;19997;-61
2021/09/22 13:30:41;;;;;;;;;;;25.30;54.70;;;;;;5073488;28;19928;-60
2021/09/22 13:33:08;;;;;;;;;;;25.30;54.70;;;;;;5072692;28;20368;-61
2021/09/22 13:35:35;;;;;;;;;;;25.30;54.70;;;;;;5074319;28;19931;-61
2021/09/22 13:38:02;;;;;;;;;;;25.20;54.70;;;;;;5074019;28;19938;-61
2021/09/22 13:40:29;;;;;;;;;;;25.30;54.70;;;;;;5060962;28;19974;-61
2021/09/22 13:42:56;;;;;;;;;;;25.20;54.80;;;;;;5068622;28;19924;-61
2021/09/22 13:45:23;;;;;;;;;;;25.20;54.80;;;;;;5062732;28;19925;-61
2021/09/22 13:47:49;;;;;;;;;;;25.20;54.90;;;;;;5068049;28;20334;-61
2021/09/22 13:50:16;;;;;;;;;;;25.20;54.90;;;;;;5073696;28;19925;-61
2021/09/22 13:52:43;;;;;;;;;;;25.20;55.00;;;;;;5073494;28;19928;-61
2021/09/22 13:55:10;;;;;;;;;;;25.20;55.00;;;;;;5071134;28;19928;-61
2021/09/22 13:57:37;;;;;;;;;;;25.20;55.00;;;;;;5072465;28;19924;-61
2021/09/22 14:00:05;;;;;;;;;;;25.20;54.90;;;;;;5074478;28;19925;-61
2021/09/22 14:02:34;;;;;;;;;;;25.10;54.90;;;;;;5072898;28;19972;-60
2021/09/22 14:05:01;;;;;;;;;;;25.10;55.00;;;;;;5072466;28;19925;-61
2021/09/22 14:07:28;;;;;;;;;;;25.10;54.90;;;;;;5072686;28;19932;-61
2021/09/22 14:09:55;;;;;;;;;;;25.10;55.00;;;;;;5072600;28;19931;-61
2021/09/22 14:12:22;;;;;;;;;;;25.10;55.00;;;;;;5073284;28;19924;-61
2021/09/22 14:14:51;;;;;;;;;;;25.10;55.10;;;;;;5073754;28;19971;-61
2021/09/22 14:17:18;;;;;;;;;;;25.10;55.10;;;;;;5071108;28;19924;-61
2021/09/22 14:19:44;;;;;;;;;;;25.00;55.10;;;;;;5073585;28;19929;-61
2021/09/22 14:22:12;;;;;;;;;;;25.00;55.10;;;;;;5074562;28;19924;-60